sensor_id;sensor_type;location;lat;lon;timestamp;P1;durP1;ratioP1;P2;durP2;ratioP2
11094;SDS011;5601;44.490;11.400;2022-07-03T00:02:06;6.35;;;4.05;;
11094;SDS011;5601;44.490;11.400;2022-07-03T00:04:34;7.85;;;4.35;;
11094;SDS011;5601;44.490;11.400;2022-07-03T00:07:03;8.10;;;4.05;;
11094;SDS011;5601;44.490;11.400;2022-07-03T00:09:30;10.52;;;4.85;;
11094;SDS011;5601;44.490;11.400;2022-07-03T00:11:57;6.22;;;4.35;;
11094;SDS011;5601;44.490;11.400;2022-07-03T00:14:25;5.95;;;4.05;;
11094;SDS011;5601;44.490;11.400;2022-07-03T00:16:52;8.25;;;5.05;;
11094;SDS011;5601;44.490;11.400;2022-07-03T00:19:20;7.03;;;4.30;;
11094;SDS011;5601;44.490;11.400;2022-07-03T00:21:48;8.55;;;4.25;;
11094;SDS011;5601;44.490;11.400;2022-07-03T00:24:23;10.85;;;4.35;;
11094;SDS011;5601;44.490;11.400;2022-07-03T00:26:53;6.88;;;4.20;;
11094;SDS011;5601;44.490;11.400;2022-07-03T00:29:21;10.15;;;3.72;;
11094;SDS011;5601;44.490;11.400;2022-07-03T00:31:49;7.28;;;4.07;;
11094;SDS011;5601;44.490;11.400;2022-07-03T00:34:17;7.30;;;4.70;;
11094;SDS011;5601;44.490;11.400;2022-07-03T00:36:46;7.78;;;4.28;;
11094;SDS011;5601;44.490;11.400;2022-07-03T00:39:14;11.90;;;4.05;;
11094;SDS011;5601;44.490;11.400;2022-07-03T00:41:44;9.68;;;4.53;;
11094;SDS011;5601;44.490;11.400;2022-07-03T00:44:12;7.35;;;3.92;;
11094;SDS011;5601;44.490;11.400;2022-07-03T00:46:40;8.70;;;4.20;;
11094;SDS011;5601;44.490;11.400;2022-07-03T00:49:11;11.30;;;4.50;;
11094;SDS011;5601;44.490;11.400;2022-07-03T00:51:40;12.30;;;3.80;;
11094;SDS011;5601;44.490;11.400;2022-07-03T00:54:09;8.25;;;4.30;;
11094;SDS011;5601;44.490;11.400;2022-07-03T00:56:46;8.82;;;3.97;;
11094;SDS011;5601;44.490;11.400;2022-07-03T00:59:16;12.38;;;4.03;;
11094;SDS011;5601;44.490;11.400;2022-07-03T01:01:45;7.50;;;4.07;;
11094;SDS011;5601;44.490;11.400;2022-07-03T01:04:17;11.57;;;4.20;;
11094;SDS011;5601;44.490;11.400;2022-07-03T01:06:52;7.38;;;4.20;;
11094;SDS011;5601;44.490;11.400;2022-07-03T01:09:23;10.88;;;4.18;;
11094;SDS011;5601;44.490;11.400;2022-07-03T01:12:07;8.65;;;4.40;;
11094;SDS011;5601;44.490;11.400;2022-07-03T01:14:43;9.43;;;4.18;;
11094;SDS011;5601;44.490;11.400;2022-07-03T01:17:32;7.90;;;4.25;;
11094;SDS011;5601;44.490;11.400;2022-07-03T01:20:06;7.50;;;4.32;;
11094;SDS011;5601;44.490;11.400;2022-07-03T01:22:35;7.85;;;4.00;;
11094;SDS011;5601;44.490;11.400;2022-07-03T01:25:12;11.85;;;3.92;;
11094;SDS011;5601;44.490;11.400;2022-07-03T01:30:38;7.88;;;3.95;;
11094;SDS011;5601;44.490;11.400;2022-07-03T01:33:08;10.77;;;4.50;;
11094;SDS011;5601;44.490;11.400;2022-07-03T01:35:39;6.65;;;3.92;;
11094;SDS011;5601;44.490;11.400;2022-07-03T01:38:09;6.80;;;4.40;;
11094;SDS011;5601;44.490;11.400;2022-07-03T01:40:37;7.88;;;3.90;;
11094;SDS011;5601;44.490;11.400;2022-07-03T01:43:07;7.13;;;3.95;;
11094;SDS011;5601;44.490;11.400;2022-07-03T01:45:38;9.82;;;3.72;;
11094;SDS011;5601;44.490;11.400;2022-07-03T01:48:09;4.70;;;3.85;;
11094;SDS011;5601;44.490;11.400;2022-07-03T01:50:37;7.13;;;4.18;;
11094;SDS011;5601;44.490;11.400;2022-07-03T01:53:06;9.90;;;4.40;;
11094;SDS011;5601;44.490;11.400;2022-07-03T01:55:35;5.63;;;4.00;;
11094;SDS011;5601;44.490;11.400;2022-07-03T01:58:05;7.55;;;3.92;;
11094;SDS011;5601;44.490;11.400;2022-07-03T02:00:40;7.93;;;4.30;;
11094;SDS011;5601;44.490;11.400;2022-07-03T02:03:14;8.65;;;4.10;;
11094;SDS011;5601;44.490;11.400;2022-07-03T02:05:53;9.10;;;4.55;;
11094;SDS011;5601;44.490;11.400;2022-07-03T02:08:43;5.40;;;4.00;;
11094;SDS011;5601;44.490;11.400;2022-07-03T02:11:15;7.63;;;4.30;;
11094;SDS011;5601;44.490;11.400;2022-07-03T02:13:55;9.57;;;4.20;;
11094;SDS011;5601;44.490;11.400;2022-07-03T02:16:35;7.72;;;4.30;;
11094;SDS011;5601;44.490;11.400;2022-07-03T02:19:11;7.85;;;4.80;;
11094;SDS011;5601;44.490;11.400;2022-07-03T02:21:47;8.23;;;4.00;;
11094;SDS011;5601;44.490;11.400;2022-07-03T02:24:17;7.97;;;4.13;;
11094;SDS011;5601;44.490;11.400;2022-07-03T02:26:52;7.68;;;4.60;;
11094;SDS011;5601;44.490;11.400;2022-07-03T02:29:25;9.20;;;4.43;;
11094;SDS011;5601;44.490;11.400;2022-07-03T02:32:02;7.22;;;4.20;;
11094;SDS011;5601;44.490;11.400;2022-07-03T02:34:32;8.57;;;3.55;;
11094;SDS011;5601;44.490;11.400;2022-07-03T02:37:05;5.75;;;3.53;;
11094;SDS011;5601;44.490;11.400;2022-07-03T02:39:40;7.65;;;4.30;;
11094;SDS011;5601;44.490;11.400;2022-07-03T02:42:12;5.28;;;3.83;;
11094;SDS011;5601;44.490;11.400;2022-07-03T02:44:49;9.40;;;4.57;;
11094;SDS011;5601;44.490;11.400;2022-07-03T02:47:24;7.28;;;3.60;;
11094;SDS011;5601;44.490;11.400;2022-07-03T02:49:58;7.00;;;4.07;;
11094;SDS011;5601;44.490;11.400;2022-07-03T02:52:32;9.45;;;4.32;;
11094;SDS011;5601;44.490;11.400;2022-07-03T02:55:10;7.43;;;4.20;;
11094;SDS011;5601;44.490;11.400;2022-07-03T02:57:46;6.57;;;3.95;;
11094;SDS011;5601;44.490;11.400;2022-07-03T03:00:24;8.02;;;4.10;;
11094;SDS011;5601;44.490;11.400;2022-07-03T03:02:53;8.15;;;4.10;;
11094;SDS011;5601;44.490;11.400;2022-07-03T03:05:24;9.13;;;3.92;;
11094;SDS011;5601;44.490;11.400;2022-07-03T03:10:44;9.30;;;4.00;;
11094;SDS011;5601;44.490;11.400;2022-07-03T03:13:13;7.10;;;3.83;;
11094;SDS011;5601;44.490;11.400;2022-07-03T03:15:47;10.93;;;3.80;;
11094;SDS011;5601;44.490;11.400;2022-07-03T03:18:27;7.63;;;3.70;;
11094;SDS011;5601;44.490;11.400;2022-07-03T03:20:56;5.18;;;3.78;;
11094;SDS011;5601;44.490;11.400;2022-07-03T03:23:30;6.85;;;4.07;;
11094;SDS011;5601;44.490;11.400;2022-07-03T03:26:04;7.72;;;3.70;;
11094;SDS011;5601;44.490;11.400;2022-07-03T03:28:32;7.45;;;4.13;;
11094;SDS011;5601;44.490;11.400;2022-07-03T03:31:00;7.47;;;4.15;;
11094;SDS011;5601;44.490;11.400;2022-07-03T03:33:33;7.15;;;4.43;;
11094;SDS011;5601;44.490;11.400;2022-07-03T03:36:05;4.93;;;3.95;;
11094;SDS011;5601;44.490;11.400;2022-07-03T03:38:34;7.22;;;3.80;;
11094;SDS011;5601;44.490;11.400;2022-07-03T03:41:02;7.25;;;3.90;;
11094;SDS011;5601;44.490;11.400;2022-07-03T03:43:30;9.30;;;4.05;;
11094;SDS011;5601;44.490;11.400;2022-07-03T03:45:58;6.47;;;4.28;;
11094;SDS011;5601;44.490;11.400;2022-07-03T03:48:26;7.15;;;4.38;;
11094;SDS011;5601;44.490;11.400;2022-07-03T03:50:55;8.35;;;4.00;;
11094;SDS011;5601;44.490;11.400;2022-07-03T03:53:24;9.35;;;4.00;;
11094;SDS011;5601;44.490;11.400;2022-07-03T03:55:53;7.13;;;3.78;;
11094;SDS011;5601;44.490;11.400;2022-07-03T03:58:25;8.35;;;4.10;;
11094;SDS011;5601;44.490;11.400;2022-07-03T04:00:52;5.85;;;3.72;;
11094;SDS011;5601;44.490;11.400;2022-07-03T04:03:21;6.65;;;3.65;;
11094;SDS011;5601;44.490;11.400;2022-07-03T04:05:48;10.48;;;4.07;;
11094;SDS011;5601;44.490;11.400;2022-07-03T04:08:17;5.95;;;4.18;;
11094;SDS011;5601;44.490;11.400;2022-07-03T04:10:44;8.43;;;4.30;;
11094;SDS011;5601;44.490;11.400;2022-07-03T04:13:12;7.22;;;4.28;;
11094;SDS011;5601;44.490;11.400;2022-07-03T04:15:39;9.60;;;4.63;;
11094;SDS011;5601;44.490;11.400;2022-07-03T04:18:07;6.65;;;4.28;;
11094;SDS011;5601;44.490;11.400;2022-07-03T06:35:27;6.43;;;4.00;;
11094;SDS011;5601;44.490;11.400;2022-07-03T06:37:55;8.27;;;4.18;;
11094;SDS011;5601;44.490;11.400;2022-07-03T06:40:22;6.53;;;3.97;;
11094;SDS011;5601;44.490;11.400;2022-07-03T06:42:49;7.25;;;4.13;;
11094;SDS011;5601;44.490;11.400;2022-07-03T06:45:17;7.35;;;4.50;;
11094;SDS011;5601;44.490;11.400;2022-07-03T06:47:45;7.47;;;4.15;;
11094;SDS011;5601;44.490;11.400;2022-07-03T06:50:14;6.72;;;4.00;;
11094;SDS011;5601;44.490;11.400;2022-07-03T06:52:41;6.70;;;4.28;;
11094;SDS011;5601;44.490;11.400;2022-07-03T06:55:09;6.95;;;4.10;;
11094;SDS011;5601;44.490;11.400;2022-07-03T06:57:37;7.50;;;4.22;;
11094;SDS011;5601;44.490;11.400;2022-07-03T07:00:05;5.30;;;3.63;;
11094;SDS011;5601;44.490;11.400;2022-07-03T07:02:33;10.00;;;3.90;;
11094;SDS011;5601;44.490;11.400;2022-07-03T07:05:01;8.20;;;4.32;;
11094;SDS011;5601;44.490;11.400;2022-07-03T07:07:30;6.50;;;4.35;;
11094;SDS011;5601;44.490;11.400;2022-07-03T07:09:58;8.27;;;4.05;;
11094;SDS011;5601;44.490;11.400;2022-07-03T07:12:26;6.30;;;3.80;;
11094;SDS011;5601;44.490;11.400;2022-07-03T07:14:53;7.80;;;3.90;;
11094;SDS011;5601;44.490;11.400;2022-07-03T07:17:21;7.60;;;4.20;;
11094;SDS011;5601;44.490;11.400;2022-07-03T07:19:48;5.57;;;3.47;;
11094;SDS011;5601;44.490;11.400;2022-07-03T07:22:16;9.85;;;4.07;;
11094;SDS011;5601;44.490;11.400;2022-07-03T07:24:45;5.95;;;4.20;;
11094;SDS011;5601;44.490;11.400;2022-07-03T07:27:12;6.25;;;3.80;;
11094;SDS011;5601;44.490;11.400;2022-07-03T07:29:40;8.70;;;4.30;;
11094;SDS011;5601;44.490;11.400;2022-07-03T07:32:07;9.18;;;4.07;;
11094;SDS011;5601;44.490;11.400;2022-07-03T07:34:35;8.68;;;3.97;;
11094;SDS011;5601;44.490;11.400;2022-07-03T07:37:02;7.05;;;4.00;;
11094;SDS011;5601;44.490;11.400;2022-07-03T07:39:32;8.95;;;3.72;;
11094;SDS011;5601;44.490;11.400;2022-07-03T07:42:00;8.88;;;4.78;;
11094;SDS011;5601;44.490;11.400;2022-07-03T07:44:28;11.73;;;4.10;;
11094;SDS011;5601;44.490;11.400;2022-07-03T07:46:55;5.82;;;3.58;;
11094;SDS011;5601;44.490;11.400;2022-07-03T07:49:22;6.55;;;3.60;;
11094;SDS011;5601;44.490;11.400;2022-07-03T07:51:50;4.35;;;3.53;;
11094;SDS011;5601;44.490;11.400;2022-07-03T07:54:17;9.85;;;3.95;;
11094;SDS011;5601;44.490;11.400;2022-07-03T07:56:45;8.00;;;3.13;;
11094;SDS011;5601;44.490;11.400;2022-07-03T07:59:14;11.27;;;4.90;;
11094;SDS011;5601;44.490;11.400;2022-07-03T08:01:41;9.02;;;4.15;;
11094;SDS011;5601;44.490;11.400;2022-07-03T08:04:25;6.90;;;3.70;;
11094;SDS011;5601;44.490;11.400;2022-07-03T08:07:10;7.90;;;3.88;;
11094;SDS011;5601;44.490;11.400;2022-07-03T08:09:38;7.13;;;3.40;;
11094;SDS011;5601;44.490;11.400;2022-07-03T08:12:06;10.13;;;3.78;;
11094;SDS011;5601;44.490;11.400;2022-07-03T08:14:36;6.47;;;3.50;;
11094;SDS011;5601;44.490;11.400;2022-07-03T08:17:04;8.48;;;3.50;;
11094;SDS011;5601;44.490;11.400;2022-07-03T08:19:31;6.72;;;3.70;;
11094;SDS011;5601;44.490;11.400;2022-07-03T08:21:59;8.60;;;3.88;;
11094;SDS011;5601;44.490;11.400;2022-07-03T08:24:26;8.32;;;3.85;;
11094;SDS011;5601;44.490;11.400;2022-07-03T08:26:54;5.80;;;4.00;;
11094;SDS011;5601;44.490;11.400;2022-07-03T08:29:21;6.60;;;3.40;;
11094;SDS011;5601;44.490;11.400;2022-07-03T08:31:50;8.20;;;3.30;;
11094;SDS011;5601;44.490;11.400;2022-07-03T08:34:18;8.18;;;3.70;;
11094;SDS011;5601;44.490;11.400;2022-07-03T08:36:45;8.35;;;3.95;;
11094;SDS011;5601;44.490;11.400;2022-07-03T08:39:12;6.03;;;4.00;;
11094;SDS011;5601;44.490;11.400;2022-07-03T08:41:40;8.80;;;4.05;;
11094;SDS011;5601;44.490;11.400;2022-07-03T08:44:08;8.88;;;3.78;;
11094;SDS011;5601;44.490;11.400;2022-07-03T08:46:37;5.38;;;3.85;;
11094;SDS011;5601;44.490;11.400;2022-07-03T08:49:08;7.80;;;3.80;;
11094;SDS011;5601;44.490;11.400;2022-07-03T08:51:37;6.95;;;3.85;;
11094;SDS011;5601;44.490;11.400;2022-07-03T08:54:08;6.38;;;3.65;;
11094;SDS011;5601;44.490;11.400;2022-07-03T08:56:35;5.68;;;4.00;;
11094;SDS011;5601;44.490;11.400;2022-07-03T08:59:03;6.53;;;4.35;;
11094;SDS011;5601;44.490;11.400;2022-07-03T09:01:33;9.98;;;4.40;;
11094;SDS011;5601;44.490;11.400;2022-07-03T09:04:07;10.43;;;4.30;;
11094;SDS011;5601;44.490;11.400;2022-07-03T09:06:38;8.82;;;3.95;;
11094;SDS011;5601;44.490;11.400;2022-07-03T09:09:07;8.00;;;4.10;;
11094;SDS011;5601;44.490;11.400;2022-07-03T09:11:35;8.15;;;3.72;;
11094;SDS011;5601;44.490;11.400;2022-07-03T09:14:04;5.25;;;3.70;;
11094;SDS011;5601;44.490;11.400;2022-07-03T09:16:32;8.07;;;4.10;;
11094;SDS011;5601;44.490;11.400;2022-07-03T09:19:01;6.03;;;3.78;;
11094;SDS011;5601;44.490;11.400;2022-07-03T09:21:37;6.22;;;3.75;;
11094;SDS011;5601;44.490;11.400;2022-07-03T09:24:05;6.43;;;4.20;;
11094;SDS011;5601;44.490;11.400;2022-07-03T09:26:34;8.63;;;3.63;;
11094;SDS011;5601;44.490;11.400;2022-07-03T09:29:02;7.25;;;3.75;;
11094;SDS011;5601;44.490;11.400;2022-07-03T09:31:32;6.38;;;4.00;;
11094;SDS011;5601;44.490;11.400;2022-07-03T09:34:00;4.93;;;3.72;;
11094;SDS011;5601;44.490;11.400;2022-07-03T09:36:42;5.78;;;3.70;;
11094;SDS011;5601;44.490;11.400;2022-07-03T09:39:15;9.10;;;4.28;;
11094;SDS011;5601;44.490;11.400;2022-07-03T09:41:52;6.53;;;3.83;;
11094;SDS011;5601;44.490;11.400;2022-07-03T09:44:30;6.88;;;3.72;;
11094;SDS011;5601;44.490;11.400;2022-07-03T09:47:08;6.18;;;3.60;;
11094;SDS011;5601;44.490;11.400;2022-07-03T09:52:35;10.88;;;4.15;;
11094;SDS011;5601;44.490;11.400;2022-07-03T09:55:13;7.15;;;3.70;;
11094;SDS011;5601;44.490;11.400;2022-07-03T09:57:43;4.47;;;3.30;;
11094;SDS011;5601;44.490;11.400;2022-07-03T10:00:15;5.55;;;3.38;;
11094;SDS011;5601;44.490;11.400;2022-07-03T10:02:52;5.35;;;3.53;;
11094;SDS011;5601;44.490;11.400;2022-07-03T10:05:22;4.78;;;3.13;;
11094;SDS011;5601;44.490;11.400;2022-07-03T10:07:52;5.18;;;3.38;;
11094;SDS011;5601;44.490;11.400;2022-07-03T10:10:21;5.90;;;3.20;;
11094;SDS011;5601;44.490;11.400;2022-07-03T10:12:50;6.03;;;3.17;;
11094;SDS011;5601;44.490;11.400;2022-07-03T10:15:18;7.15;;;3.35;;
11094;SDS011;5601;44.490;11.400;2022-07-03T10:17:47;6.30;;;3.17;;
11094;SDS011;5601;44.490;11.400;2022-07-03T10:20:18;8.60;;;4.20;;
11094;SDS011;5601;44.490;11.400;2022-07-03T10:22:52;12.93;;;3.60;;
11094;SDS011;5601;44.490;11.400;2022-07-03T10:25:20;4.28;;;3.17;;
11094;SDS011;5601;44.490;11.400;2022-07-03T10:27:48;6.60;;;3.15;;
11094;SDS011;5601;44.490;11.400;2022-07-03T10:30:16;5.47;;;4.20;;
11094;SDS011;5601;44.490;11.400;2022-07-03T10:32:46;6.80;;;4.20;;
11094;SDS011;5601;44.490;11.400;2022-07-03T10:35:15;6.78;;;3.47;;
11094;SDS011;5601;44.490;11.400;2022-07-03T10:37:52;4.75;;;3.28;;
11094;SDS011;5601;44.490;11.400;2022-07-03T10:40:32;9.18;;;4.45;;
11094;SDS011;5601;44.490;11.400;2022-07-03T10:43:25;5.72;;;3.80;;
11094;SDS011;5601;44.490;11.400;2022-07-03T10:46:13;8.38;;;3.83;;
11094;SDS011;5601;44.490;11.400;2022-07-03T10:48:57;6.15;;;3.58;;
11094;SDS011;5601;44.490;11.400;2022-07-03T10:51:27;5.70;;;4.28;;
11094;SDS011;5601;44.490;11.400;2022-07-03T10:54:16;10.68;;;3.70;;
11094;SDS011;5601;44.490;11.400;2022-07-03T11:02:44;7.82;;;4.00;;
11094;SDS011;5601;44.490;11.400;2022-07-03T11:08:11;5.18;;;3.70;;
11094;SDS011;5601;44.490;11.400;2022-07-03T11:10:40;4.32;;;3.85;;
11094;SDS011;5601;44.490;11.400;2022-07-03T11:13:16;9.85;;;3.83;;
11094;SDS011;5601;44.490;11.400;2022-07-03T11:15:52;4.45;;;3.42;;
11094;SDS011;5601;44.490;11.400;2022-07-03T11:18:26;7.18;;;3.80;;
11094;SDS011;5601;44.490;11.400;2022-07-03T11:21:12;5.68;;;3.70;;
11094;SDS011;5601;44.490;11.400;2022-07-03T11:24:03;5.07;;;3.50;;
11094;SDS011;5601;44.490;11.400;2022-07-03T11:29:57;7.78;;;3.50;;
11094;SDS011;5601;44.490;11.400;2022-07-03T11:38:16;5.47;;;3.53;;
11094;SDS011;5601;44.490;11.400;2022-07-03T11:40:47;3.83;;;3.47;;
11094;SDS011;5601;44.490;11.400;2022-07-03T11:43:16;4.70;;;3.60;;
11094;SDS011;5601;44.490;11.400;2022-07-03T11:45:46;5.75;;;3.58;;
11094;SDS011;5601;44.490;11.400;2022-07-03T11:48:15;7.15;;;3.78;;
11094;SDS011;5601;44.490;11.400;2022-07-03T11:50:44;5.72;;;3.50;;
11094;SDS011;5601;44.490;11.400;2022-07-03T11:53:16;7.18;;;3.45;;
11094;SDS011;5601;44.490;11.400;2022-07-03T11:55:51;4.45;;;3.40;;
11094;SDS011;5601;44.490;11.400;2022-07-03T11:58:20;4.55;;;3.45;;
11094;SDS011;5601;44.490;11.400;2022-07-03T12:00:50;5.03;;;3.25;;
11094;SDS011;5601;44.490;11.400;2022-07-03T12:03:22;6.53;;;3.33;;
11094;SDS011;5601;44.490;11.400;2022-07-03T12:05:52;5.88;;;3.63;;
11094;SDS011;5601;44.490;11.400;2022-07-03T12:08:22;5.13;;;3.67;;
11094;SDS011;5601;44.490;11.400;2022-07-03T12:11:01;6.95;;;3.40;;
11094;SDS011;5601;44.490;11.400;2022-07-03T12:13:30;7.15;;;3.45;;
11094;SDS011;5601;44.490;11.400;2022-07-03T12:16:07;4.45;;;3.47;;
11094;SDS011;5601;44.490;11.400;2022-07-03T12:18:42;8.90;;;3.53;;
11094;SDS011;5601;44.490;11.400;2022-07-03T12:21:10;7.20;;;3.58;;
11094;SDS011;5601;44.490;11.400;2022-07-03T12:23:42;4.47;;;3.50;;
11094;SDS011;5601;44.490;11.400;2022-07-03T12:26:10;5.78;;;3.65;;
11094;SDS011;5601;44.490;11.400;2022-07-03T12:28:38;6.60;;;3.28;;
11094;SDS011;5601;44.490;11.400;2022-07-03T12:31:08;8.27;;;3.85;;
11094;SDS011;5601;44.490;11.400;2022-07-03T12:33:36;5.25;;;3.80;;
11094;SDS011;5601;44.490;11.400;2022-07-03T12:36:06;5.60;;;3.97;;
11094;SDS011;5601;44.490;11.400;2022-07-03T12:38:35;4.63;;;3.53;;
11094;SDS011;5601;44.490;11.400;2022-07-03T12:41:08;5.47;;;3.70;;
11094;SDS011;5601;44.490;11.400;2022-07-03T12:43:37;5.75;;;3.45;;
11094;SDS011;5601;44.490;11.400;2022-07-03T12:46:19;5.90;;;3.55;;
11094;SDS011;5601;44.490;11.400;2022-07-03T12:48:48;3.88;;;3.35;;
11094;SDS011;5601;44.490;11.400;2022-07-03T12:51:17;7.50;;;3.85;;
11094;SDS011;5601;44.490;11.400;2022-07-03T12:54:06;6.13;;;3.72;;
11094;SDS011;5601;44.490;11.400;2022-07-03T12:56:34;5.15;;;3.58;;
11094;SDS011;5601;44.490;11.400;2022-07-03T12:59:02;5.05;;;3.63;;
11094;SDS011;5601;44.490;11.400;2022-07-03T13:01:59;3.35;;;3.00;;
11094;SDS011;5601;44.490;11.400;2022-07-03T13:04:31;4.13;;;3.38;;
11094;SDS011;5601;44.490;11.400;2022-07-03T13:07:00;3.65;;;3.17;;
11094;SDS011;5601;44.490;11.400;2022-07-03T13:09:28;4.93;;;3.25;;
11094;SDS011;5601;44.490;11.400;2022-07-03T13:11:56;5.05;;;3.13;;
11094;SDS011;5601;44.490;11.400;2022-07-03T13:14:24;3.72;;;3.10;;
11094;SDS011;5601;44.490;11.400;2022-07-03T13:16:53;8.27;;;4.03;;
11094;SDS011;5601;44.490;11.400;2022-07-03T13:19:22;3.55;;;2.92;;
11094;SDS011;5601;44.490;11.400;2022-07-03T13:21:51;3.90;;;3.38;;
11094;SDS011;5601;44.490;11.400;2022-07-03T13:24:20;3.67;;;3.03;;
11094;SDS011;5601;44.490;11.400;2022-07-03T13:26:48;6.47;;;3.38;;
11094;SDS011;5601;44.490;11.400;2022-07-03T13:29:17;3.92;;;3.28;;
11094;SDS011;5601;44.490;11.400;2022-07-03T13:31:44;4.95;;;3.22;;
11094;SDS011;5601;44.490;11.400;2022-07-03T13:34:13;3.42;;;2.97;;
11094;SDS011;5601;44.490;11.400;2022-07-03T13:36:40;5.70;;;3.33;;
11094;SDS011;5601;44.490;11.400;2022-07-03T13:39:08;6.75;;;3.33;;
11094;SDS011;5601;44.490;11.400;2022-07-03T13:41:35;4.13;;;3.63;;
11094;SDS011;5601;44.490;11.400;2022-07-03T13:44:03;3.30;;;3.00;;
11094;SDS011;5601;44.490;11.400;2022-07-03T13:46:30;5.45;;;3.70;;
11094;SDS011;5601;44.490;11.400;2022-07-03T13:48:58;4.22;;;3.40;;
11094;SDS011;5601;44.490;11.400;2022-07-03T13:51:27;4.00;;;3.60;;
11094;SDS011;5601;44.490;11.400;2022-07-03T13:53:54;4.57;;;2.88;;
11094;SDS011;5601;44.490;11.400;2022-07-03T13:56:22;5.68;;;3.38;;
11094;SDS011;5601;44.490;11.400;2022-07-03T13:58:50;5.25;;;2.97;;
11094;SDS011;5601;44.490;11.400;2022-07-03T14:01:17;6.43;;;3.50;;
11094;SDS011;5601;44.490;11.400;2022-07-03T14:03:45;5.63;;;3.33;;
11094;SDS011;5601;44.490;11.400;2022-07-03T14:06:13;6.40;;;3.20;;
11094;SDS011;5601;44.490;11.400;2022-07-03T14:08:41;7.15;;;3.50;;
11094;SDS011;5601;44.490;11.400;2022-07-03T14:11:09;5.03;;;3.20;;
11094;SDS011;5601;44.490;11.400;2022-07-03T14:13:37;4.75;;;3.10;;
11094;SDS011;5601;44.490;11.400;2022-07-03T14:16:04;4.30;;;3.38;;
11094;SDS011;5601;44.490;11.400;2022-07-03T14:18:32;4.38;;;2.95;;
11094;SDS011;5601;44.490;11.400;2022-07-03T14:20:59;3.95;;;3.30;;
11094;SDS011;5601;44.490;11.400;2022-07-03T14:23:27;4.10;;;3.40;;
11094;SDS011;5601;44.490;11.400;2022-07-03T14:25:56;4.93;;;3.45;;
11094;SDS011;5601;44.490;11.400;2022-07-03T14:28:24;6.15;;;3.40;;
11094;SDS011;5601;44.490;11.400;2022-07-03T14:31:08;7.68;;;3.28;;
11094;SDS011;5601;44.490;11.400;2022-07-03T14:33:58;4.03;;;3.35;;
11094;SDS011;5601;44.490;11.400;2022-07-03T14:36:26;5.53;;;3.22;;
11094;SDS011;5601;44.490;11.400;2022-07-03T14:38:53;5.15;;;3.60;;
11094;SDS011;5601;44.490;11.400;2022-07-03T14:41:22;4.00;;;3.10;;
11094;SDS011;5601;44.490;11.400;2022-07-03T14:43:49;4.43;;;3.33;;
11094;SDS011;5601;44.490;11.400;2022-07-03T14:46:17;4.90;;;2.97;;
11094;SDS011;5601;44.490;11.400;2022-07-03T14:48:45;4.60;;;3.55;;
11094;SDS011;5601;44.490;11.400;2022-07-03T14:51:13;5.38;;;3.78;;
11094;SDS011;5601;44.490;11.400;2022-07-03T14:53:40;5.65;;;3.50;;
11094;SDS011;5601;44.490;11.400;2022-07-03T14:56:10;3.60;;;2.90;;
11094;SDS011;5601;44.490;11.400;2022-07-03T14:58:44;3.88;;;3.33;;
11094;SDS011;5601;44.490;11.400;2022-07-03T15:01:13;6.10;;;3.45;;
11094;SDS011;5601;44.490;11.400;2022-07-03T15:03:45;5.40;;;3.42;;
11094;SDS011;5601;44.490;11.400;2022-07-03T15:06:21;5.28;;;3.22;;
11094;SDS011;5601;44.490;11.400;2022-07-03T15:08:52;7.68;;;3.55;;
11094;SDS011;5601;44.490;11.400;2022-07-03T15:11:29;6.25;;;3.63;;
11094;SDS011;5601;44.490;11.400;2022-07-03T15:14:32;4.88;;;3.05;;
11094;SDS011;5601;44.490;11.400;2022-07-03T15:17:00;5.60;;;3.50;;
11094;SDS011;5601;44.490;11.400;2022-07-03T15:19:28;3.42;;;2.88;;
11094;SDS011;5601;44.490;11.400;2022-07-03T15:21:57;4.05;;;3.30;;
11094;SDS011;5601;44.490;11.400;2022-07-03T15:24:25;4.90;;;3.17;;
11094;SDS011;5601;44.490;11.400;2022-07-03T15:26:54;4.25;;;3.50;;
11094;SDS011;5601;44.490;11.400;2022-07-03T15:29:24;6.60;;;3.20;;
11094;SDS011;5601;44.490;11.400;2022-07-03T15:31:53;5.40;;;3.45;;
11094;SDS011;5601;44.490;11.400;2022-07-03T15:34:21;5.00;;;3.40;;
11094;SDS011;5601;44.490;11.400;2022-07-03T15:36:50;5.97;;;3.08;;
11094;SDS011;5601;44.490;11.400;2022-07-03T15:39:25;6.20;;;3.95;;
11094;SDS011;5601;44.490;11.400;2022-07-03T15:42:01;4.57;;;3.10;;
11094;SDS011;5601;44.490;11.400;2022-07-03T15:44:37;4.90;;;3.10;;
11094;SDS011;5601;44.490;11.400;2022-07-03T15:47:20;4.88;;;2.90;;
11094;SDS011;5601;44.490;11.400;2022-07-03T15:49:56;6.95;;;3.60;;
11094;SDS011;5601;44.490;11.400;2022-07-03T15:52:26;5.97;;;3.42;;
11094;SDS011;5601;44.490;11.400;2022-07-03T15:54:56;4.18;;;3.03;;
11094;SDS011;5601;44.490;11.400;2022-07-03T15:57:26;5.80;;;3.47;;
11094;SDS011;5601;44.490;11.400;2022-07-03T15:59:58;3.90;;;3.17;;
11094;SDS011;5601;44.490;11.400;2022-07-03T16:02:39;7.28;;;3.15;;
11094;SDS011;5601;44.490;11.400;2022-07-03T16:05:16;7.28;;;3.35;;
11094;SDS011;5601;44.490;11.400;2022-07-03T16:07:44;5.38;;;3.30;;
11094;SDS011;5601;44.490;11.400;2022-07-03T16:10:13;3.28;;;2.95;;
11094;SDS011;5601;44.490;11.400;2022-07-03T16:12:41;6.50;;;2.95;;
11094;SDS011;5601;44.490;11.400;2022-07-03T16:15:14;5.80;;;3.20;;
11094;SDS011;5601;44.490;11.400;2022-07-03T16:17:44;3.60;;;3.30;;
11094;SDS011;5601;44.490;11.400;2022-07-03T16:20:16;6.38;;;3.53;;
11094;SDS011;5601;44.490;11.400;2022-07-03T16:22:45;3.63;;;2.90;;
11094;SDS011;5601;44.490;11.400;2022-07-03T16:25:14;5.25;;;3.40;;
11094;SDS011;5601;44.490;11.400;2022-07-03T16:27:41;3.95;;;3.13;;
11094;SDS011;5601;44.490;11.400;2022-07-03T16:30:10;5.50;;;3.22;;
11094;SDS011;5601;44.490;11.400;2022-07-03T16:32:39;5.45;;;3.25;;
11094;SDS011;5601;44.490;11.400;2022-07-03T16:35:10;8.57;;;3.90;;
11094;SDS011;5601;44.490;11.400;2022-07-03T16:37:43;4.53;;;3.38;;
11094;SDS011;5601;44.490;11.400;2022-07-03T16:40:13;3.30;;;3.00;;
11094;SDS011;5601;44.490;11.400;2022-07-03T16:42:43;5.68;;;3.35;;
11094;SDS011;5601;44.490;11.400;2022-07-03T16:45:12;7.10;;;3.40;;
11094;SDS011;5601;44.490;11.400;2022-07-03T16:47:41;4.80;;;3.30;;
11094;SDS011;5601;44.490;11.400;2022-07-03T16:50:12;4.53;;;3.20;;
11094;SDS011;5601;44.490;11.400;2022-07-03T16:52:42;5.15;;;3.25;;
11094;SDS011;5601;44.490;11.400;2022-07-03T16:55:11;4.78;;;3.10;;
11094;SDS011;5601;44.490;11.400;2022-07-03T16:57:43;5.05;;;2.85;;
11094;SDS011;5601;44.490;11.400;2022-07-03T17:00:12;3.55;;;3.17;;
11094;SDS011;5601;44.490;11.400;2022-07-03T17:02:41;4.82;;;2.80;;
11094;SDS011;5601;44.490;11.400;2022-07-03T17:05:10;3.60;;;2.80;;
11094;SDS011;5601;44.490;11.400;2022-07-03T17:07:41;3.38;;;2.90;;
11094;SDS011;5601;44.490;11.400;2022-07-03T17:10:10;3.85;;;2.90;;
11094;SDS011;5601;44.490;11.400;2022-07-03T17:12:40;3.70;;;2.78;;
11094;SDS011;5601;44.490;11.400;2022-07-03T17:15:08;6.72;;;3.03;;
11094;SDS011;5601;44.490;11.400;2022-07-03T17:17:37;3.67;;;3.03;;
11094;SDS011;5601;44.490;11.400;2022-07-03T17:20:09;6.32;;;3.20;;
11094;SDS011;5601;44.490;11.400;2022-07-03T17:22:41;3.85;;;2.88;;
11094;SDS011;5601;44.490;11.400;2022-07-03T17:25:12;6.38;;;3.10;;
11094;SDS011;5601;44.490;11.400;2022-07-03T17:27:47;5.97;;;3.40;;
11094;SDS011;5601;44.490;11.400;2022-07-03T17:30:18;3.67;;;3.10;;
11094;SDS011;5601;44.490;11.400;2022-07-03T17:32:45;4.78;;;2.95;;
11094;SDS011;5601;44.490;11.400;2022-07-03T17:35:19;4.40;;;3.00;;
11094;SDS011;5601;44.490;11.400;2022-07-03T17:37:53;3.67;;;3.00;;
11094;SDS011;5601;44.490;11.400;2022-07-03T17:40:23;4.30;;;3.35;;
11094;SDS011;5601;44.490;11.400;2022-07-03T17:42:50;5.85;;;2.80;;
11094;SDS011;5601;44.490;11.400;2022-07-03T17:45:18;6.90;;;3.20;;
11094;SDS011;5601;44.490;11.400;2022-07-03T17:47:46;5.60;;;2.80;;
11094;SDS011;5601;44.490;11.400;2022-07-03T17:50:15;4.90;;;2.90;;
11094;SDS011;5601;44.490;11.400;2022-07-03T17:52:43;6.20;;;2.90;;